• pl
  • eng

Awiacja
Military airports TAF 01:00 01.01.1970

TAF EPCE 251700Z 2518/2603 07010KT 9999 BKN040 TEMPO 2518/2522 6000
TSRA BKN020CB =

TAF EPDA 251700Z 2518/2603 05006KT CAVOK TEMPO 2518/2603 5000 TSRA
BKN030CB =

TAF EPDA 252000Z 2521/2606 05006KT CAVOK TEMPO 2521/2603 5000 TSRA
BKN030CB =

TAF EPKS 251700Z 2518/2603 06006KT CAVOK =

TAF EPKS 252000Z 2521/2606 06004KT CAVOK =

TAF COR EPLY 301700Z 3018/0103 27008KT CAVOK PROB40 TEMPO 3018/3022
4000 TSRA BKN025CB=

TAF EPMB 251700Z 2518/2603 34008KT 9999 SCT035 PROB40 TEMPO 2518/2523
5000 TSRA BKN012CB=

TAF EPMB 252000Z 2521/2606 03006KT 7000 SCT035 BKN100 TEMPO 2521/2523
TS BKN020CB PROB40 TEMPO 2603/2606 VRB15G30KT 4000 TSRA
BKN010CB=

TAF EPMI 251700Z 2518/2603 06008KT CAVOK PROB40 TEMPO 2518/2520 6000
SHRA BKN030CB PROB30 TEMPO 2518/2520 VRB14G30KT 4000 TSRA
BKN020CB=

TAF EPMM 251700Z 2518/2603 08005KT CAVOK TEMPO 2600/2603 5000 -RA
BKN020 PROB40 2601/2603 3000 BR BKN006 =

TAF EPMM 252000Z 2521/2606 08005KT CAVOK TEMPO 2600/2606 5000 -RA BR
BKN030 PROB40 2601/2604 3000 BR BKN006 =

TAF EPOK 251700Z 2518/2603 04004KT 9999 SCT040 PROB30 TEMPO 2520/2523
6000 TSRA BKN030CB =

TAF EPOK 252000Z 2521/2606 VRB03KT CAVOK PROB30 TEMPO 2521/2524 6000
TSRA BKN030CB =

TAF EPPW 251700Z 2518/2603 05006KT CAVOK
PROB40 2600/2603 5000 BR NSC =

TAF EPPW 252000Z 2521/2606 05006KT CAVOK PROB40 2601/2606 5000 BR NSC
=

TAF EPSN 251700Z 2518/2603 03006KT CAVOK TEMPO 2518/2521 8000 SHRA
BKN030CB PROB40 TEMPO 2518/2520 VRB15G30KT 6000 TSRA BKN020CB =

TAF EPSN 252000Z 2521/2606 06002KT CAVOK PROB30 TEMPO 2521/2603 8000
BCFG =
Awiacja.imgw.pl jest pogodowym serwisem informacyjnym
Instytutu Meteorologii i Gospodarki Wodnej Państwowego Instytutu Badawczego.
Copyright IMGW PIB 2009-2011© Wszelkie prawa zastrzeżone.